sensor_id;sensor_type;location;lat;lon;timestamp;pressure;altitude;pressure_sealevel;temperature;humidity
29247;BME280;16272;48.188;9.964;2023-03-22T00:00:52;95642.03;;;9.56;70.45
29247;BME280;16272;48.188;9.964;2023-03-22T00:03:18;95637.38;;;9.40;72.00
29247;BME280;16272;48.188;9.964;2023-03-22T00:05:43;95636.22;;;9.15;74.11
29247;BME280;16272;48.188;9.964;2023-03-22T00:08:09;95639.31;;;9.66;69.97
29247;BME280;16272;48.188;9.964;2023-03-22T00:10:37;95643.38;;;9.60;69.36
29247;BME280;16272;48.188;9.964;2023-03-22T00:13:04;95637.97;;;8.29;76.05
29247;BME280;16272;48.188;9.964;2023-03-22T00:15:31;95634.31;;;8.70;76.07
29247;BME280;16272;48.188;9.964;2023-03-22T00:17:56;95637.69;;;8.52;76.76
29247;BME280;16272;48.188;9.964;2023-03-22T00:20:23;95636.22;;;8.87;75.57
29247;BME280;16272;48.188;9.964;2023-03-22T00:22:49;95634.72;;;8.75;76.34
29247;BME280;16272;48.188;9.964;2023-03-22T00:25:15;95636.34;;;9.23;74.92
29247;BME280;16272;48.188;9.964;2023-03-22T00:27:41;95628.03;;;9.36;71.77
29247;BME280;16272;48.188;9.964;2023-03-22T00:30:08;95627.00;;;9.19;73.41
29247;BME280;16272;48.188;9.964;2023-03-22T00:32:37;95620.47;;;8.48;75.79
29247;BME280;16272;48.188;9.964;2023-03-22T00:35:04;95620.22;;;9.07;72.81
29247;BME280;16272;48.188;9.964;2023-03-22T00:37:30;95630.16;;;9.32;72.11
29247;BME280;16272;48.188;9.964;2023-03-22T00:40:02;95638.38;;;9.57;72.12
29247;BME280;16272;48.188;9.964;2023-03-22T00:42:29;95630.63;;;9.46;73.13
29247;BME280;16272;48.188;9.964;2023-03-22T00:44:54;95637.91;;;9.44;73.17
29247;BME280;16272;48.188;9.964;2023-03-22T00:47:20;95642.44;;;9.33;73.80
29247;BME280;16272;48.188;9.964;2023-03-22T00:49:45;95639.75;;;9.61;71.61
29247;BME280;16272;48.188;9.964;2023-03-22T00:52:10;95634.16;;;9.64;71.50
29247;BME280;16272;48.188;9.964;2023-03-22T00:54:36;95625.91;;;9.22;73.93
29247;BME280;16272;48.188;9.964;2023-03-22T00:57:01;95635.50;;;8.85;75.91
29247;BME280;16272;48.188;9.964;2023-03-22T00:59:26;95626.91;;;8.73;77.74
29247;BME280;16272;48.188;9.964;2023-03-22T01:01:53;95632.72;;;8.87;76.37
29247;BME280;16272;48.188;9.964;2023-03-22T01:04:23;95622.81;;;8.51;77.72
29247;BME280;16272;48.188;9.964;2023-03-22T01:06:52;95624.03;;;8.57;77.74
29247;BME280;16272;48.188;9.964;2023-03-22T01:09:25;95620.28;;;8.59;77.59
29247;BME280;16272;48.188;9.964;2023-03-22T01:11:54;95622.75;;;8.71;76.48
29247;BME280;16272;48.188;9.964;2023-03-22T01:14:23;95617.47;;;8.71;77.24
29247;BME280;16272;48.188;9.964;2023-03-22T01:16:51;95614.16;;;8.96;74.96
29247;BME280;16272;48.188;9.964;2023-03-22T01:19:23;95614.81;;;8.71;76.68
29247;BME280;16272;48.188;9.964;2023-03-22T01:21:50;95616.81;;;8.29;79.01
29247;BME280;16272;48.188;9.964;2023-03-22T01:24:20;95607.53;;;8.06;80.06
29247;BME280;16272;48.188;9.964;2023-03-22T01:26:46;95612.28;;;8.02;80.31
29247;BME280;16272;48.188;9.964;2023-03-22T01:29:11;95606.84;;;7.84;82.51
29247;BME280;16272;48.188;9.964;2023-03-22T01:31:39;95595.94;;;8.36;79.38
29247;BME280;16272;48.188;9.964;2023-03-22T01:34:07;95594.41;;;8.43;79.35
29247;BME280;16272;48.188;9.964;2023-03-22T01:36:33;95603.19;;;8.44;78.87
29247;BME280;16272;48.188;9.964;2023-03-22T01:38:59;95593.38;;;8.54;78.81
29247;BME280;16272;48.188;9.964;2023-03-22T01:41:24;95590.59;;;8.56;78.20
29247;BME280;16272;48.188;9.964;2023-03-22T01:44:18;95599.44;;;8.17;79.06
29247;BME280;16272;48.188;9.964;2023-03-22T01:46:46;95607.69;;;7.75;81.63
29247;BME280;16272;48.188;9.964;2023-03-22T01:49:28;95601.16;;;7.69;80.81
29247;BME280;16272;48.188;9.964;2023-03-22T01:52:01;95603.66;;;7.61;80.90
29247;BME280;16272;48.188;9.964;2023-03-22T01:54:43;95594.72;;;7.72;79.84
29247;BME280;16272;48.188;9.964;2023-03-22T01:57:10;95592.63;;;7.95;78.84
29247;BME280;16272;48.188;9.964;2023-03-22T01:59:36;95596.81;;;7.98;77.64
29247;BME280;16272;48.188;9.964;2023-03-22T02:02:03;95590.84;;;7.57;79.44
29247;BME280;16272;48.188;9.964;2023-03-22T02:04:36;95584.59;;;7.58;78.75
29247;BME280;16272;48.188;9.964;2023-03-22T02:07:10;95585.28;;;7.40;78.69
29247;BME280;16272;48.188;9.964;2023-03-22T02:09:42;95587.66;;;7.72;76.91
29247;BME280;16272;48.188;9.964;2023-03-22T02:12:21;95592.38;;;7.69;76.80
29247;BME280;16272;48.188;9.964;2023-03-22T02:15:11;95587.91;;;7.30;78.16
29247;BME280;16272;48.188;9.964;2023-03-22T02:21:11;95586.19;;;7.10;78.45
29247;BME280;16272;48.188;9.964;2023-03-22T02:26:23;95584.66;;;6.67;81.00
29247;BME280;16272;48.188;9.964;2023-03-22T02:29:03;95584.22;;;6.31;82.42
29247;BME280;16272;48.188;9.964;2023-03-22T02:32:05;95584.56;;;6.78;80.63
29247;BME280;16272;48.188;9.964;2023-03-22T02:46:01;95585.47;;;6.67;79.11
29247;BME280;16272;48.188;9.964;2023-03-22T02:48:58;95580.75;;;6.09;81.66
29247;BME280;16272;48.188;9.964;2023-03-22T02:51:33;95586.69;;;5.90;82.81
29247;BME280;16272;48.188;9.964;2023-03-22T02:54:12;95575.28;;;6.22;80.78
29247;BME280;16272;48.188;9.964;2023-03-22T02:56:49;95572.00;;;6.30;79.27
29247;BME280;16272;48.188;9.964;2023-03-22T02:59:18;95580.81;;;6.19;78.67
29247;BME280;16272;48.188;9.964;2023-03-22T03:01:51;95585.03;;;5.89;80.67
29247;BME280;16272;48.188;9.964;2023-03-22T03:04:23;95583.78;;;5.72;81.21
29247;BME280;16272;48.188;9.964;2023-03-22T03:06:53;95578.19;;;5.98;80.62
29247;BME280;16272;48.188;9.964;2023-03-22T03:09:20;95586.13;;;5.86;80.62
29247;BME280;16272;48.188;9.964;2023-03-22T03:11:49;95580.69;;;5.99;79.67
29247;BME280;16272;48.188;9.964;2023-03-22T03:14:23;95576.78;;;5.61;83.21
29247;BME280;16272;48.188;9.964;2023-03-22T03:19:54;95583.88;;;5.17;83.23
29247;BME280;16272;48.188;9.964;2023-03-22T03:22:55;95575.72;;;5.31;83.80
29247;BME280;16272;48.188;9.964;2023-03-22T03:25:32;95573.53;;;5.69;80.60
29247;BME280;16272;48.188;9.964;2023-03-22T03:30:48;95579.28;;;5.30;84.35
29247;BME280;16272;48.188;9.964;2023-03-22T03:33:24;95576.38;;;5.45;83.11
29247;BME280;16272;48.188;9.964;2023-03-22T03:36:01;95574.84;;;5.63;80.66
29247;BME280;16272;48.188;9.964;2023-03-22T03:38:32;95570.81;;;5.59;81.49
29247;BME280;16272;48.188;9.964;2023-03-22T03:41:03;95572.09;;;5.65;79.93
29247;BME280;16272;48.188;9.964;2023-03-22T03:43:31;95579.34;;;5.08;82.95
29247;BME280;16272;48.188;9.964;2023-03-22T03:45:59;95572.69;;;5.04;82.11
29247;BME280;16272;48.188;9.964;2023-03-22T03:48:29;95579.44;;;5.18;81.48
29247;BME280;16272;48.188;9.964;2023-03-22T03:50:57;95583.44;;;5.01;81.23
29247;BME280;16272;48.188;9.964;2023-03-22T03:53:23;95580.94;;;4.88;83.37
29247;BME280;16272;48.188;9.964;2023-03-22T03:55:49;95571.75;;;4.82;84.18
29247;BME280;16272;48.188;9.964;2023-03-22T03:58:14;95574.09;;;5.08;83.90
29247;BME280;16272;48.188;9.964;2023-03-22T04:00:43;95567.22;;;4.84;85.07
29247;BME280;16272;48.188;9.964;2023-03-22T04:03:10;95571.03;;;4.80;85.93
29247;BME280;16272;48.188;9.964;2023-03-22T04:05:36;95577.50;;;4.87;85.33
29247;BME280;16272;48.188;9.964;2023-03-22T04:08:03;95578.22;;;4.67;85.84
29247;BME280;16272;48.188;9.964;2023-03-22T04:10:28;95572.59;;;4.71;84.67
29247;BME280;16272;48.188;9.964;2023-03-22T04:12:53;95581.28;;;5.06;81.90
29247;BME280;16272;48.188;9.964;2023-03-22T04:15:19;95571.78;;;4.71;82.93
29247;BME280;16272;48.188;9.964;2023-03-22T04:17:44;95573.66;;;4.91;82.64
29247;BME280;16272;48.188;9.964;2023-03-22T04:20:11;95570.19;;;4.79;83.42
29247;BME280;16272;48.188;9.964;2023-03-22T04:22:38;95578.44;;;4.75;84.46
29247;BME280;16272;48.188;9.964;2023-03-22T04:25:09;95573.88;;;4.88;84.04
29247;BME280;16272;48.188;9.964;2023-03-22T04:27:37;95569.75;;;4.63;85.09
29247;BME280;16272;48.188;9.964;2023-03-22T04:30:04;95571.78;;;4.37;86.83
29247;BME280;16272;48.188;9.964;2023-03-22T04:32:30;95587.09;;;4.54;84.62
29247;BME280;16272;48.188;9.964;2023-03-22T04:34:56;95574.25;;;4.84;82.77
29247;BME280;16272;48.188;9.964;2023-03-22T04:37:22;95582.06;;;4.74;82.14
29247;BME280;16272;48.188;9.964;2023-03-22T04:39:56;95583.25;;;4.81;81.21
29247;BME280;16272;48.188;9.964;2023-03-22T04:42:21;95581.53;;;5.03;80.92
29247;BME280;16272;48.188;9.964;2023-03-22T04:44:47;95583.69;;;4.97;80.32
29247;BME280;16272;48.188;9.964;2023-03-22T04:47:13;95585.63;;;4.39;83.50
29247;BME280;16272;48.188;9.964;2023-03-22T04:49:39;95584.69;;;4.29;84.47
29247;BME280;16272;48.188;9.964;2023-03-22T04:52:06;95586.59;;;4.27;84.74
29247;BME280;16272;48.188;9.964;2023-03-22T04:54:32;95590.53;;;4.32;84.01
29247;BME280;16272;48.188;9.964;2023-03-22T04:56:57;95588.72;;;4.33;82.97
29247;BME280;16272;48.188;9.964;2023-03-22T04:59:23;95589.72;;;4.54;81.68
29247;BME280;16272;48.188;9.964;2023-03-22T05:01:50;95587.66;;;4.35;82.03
29247;BME280;16272;48.188;9.964;2023-03-22T05:04:16;95599.03;;;4.58;80.40
29247;BME280;16272;48.188;9.964;2023-03-22T05:06:43;95600.00;;;4.46;80.40
29247;BME280;16272;48.188;9.964;2023-03-22T05:09:08;95595.09;;;4.53;80.66
29247;BME280;16272;48.188;9.964;2023-03-22T05:11:34;95594.47;;;4.49;81.34
29247;BME280;16272;48.188;9.964;2023-03-22T05:14:00;95592.72;;;4.50;80.38
29247;BME280;16272;48.188;9.964;2023-03-22T05:16:26;95589.22;;;4.15;80.87
29247;BME280;16272;48.188;9.964;2023-03-22T05:18:53;95597.94;;;4.16;81.93
29247;BME280;16272;48.188;9.964;2023-03-22T05:21:24;95596.38;;;4.24;80.74
29247;BME280;16272;48.188;9.964;2023-03-22T05:23:55;95598.13;;;4.01;82.54
29247;BME280;16272;48.188;9.964;2023-03-22T05:26:25;95603.19;;;4.27;80.53
29247;BME280;16272;48.188;9.964;2023-03-22T05:28:55;95601.88;;;3.39;85.21
29247;BME280;16272;48.188;9.964;2023-03-22T05:31:22;95606.00;;;3.06;87.09
29247;BME280;16272;48.188;9.964;2023-03-22T05:33:50;95605.00;;;3.20;86.72
29247;BME280;16272;48.188;9.964;2023-03-22T05:36:17;95613.94;;;3.42;85.40
29247;BME280;16272;48.188;9.964;2023-03-22T05:38:44;95606.19;;;3.40;85.14
29247;BME280;16272;48.188;9.964;2023-03-22T05:41:11;95608.72;;;3.77;84.02
29247;BME280;16272;48.188;9.964;2023-03-22T05:43:38;95608.56;;;4.26;80.57
29247;BME280;16272;48.188;9.964;2023-03-22T05:46:10;95601.16;;;4.31;79.02
29247;BME280;16272;48.188;9.964;2023-03-22T05:48:37;95604.97;;;4.04;80.75
29247;BME280;16272;48.188;9.964;2023-03-22T05:51:09;95590.16;;;4.14;81.46
29247;BME280;16272;48.188;9.964;2023-03-22T05:53:39;95600.81;;;4.24;80.85
29247;BME280;16272;48.188;9.964;2023-03-22T05:56:05;95597.09;;;4.49;80.42
29247;BME280;16272;48.188;9.964;2023-03-22T05:58:34;95591.63;;;4.52;80.46
29247;BME280;16272;48.188;9.964;2023-03-22T06:01:05;95601.38;;;4.05;85.01
29247;BME280;16272;48.188;9.964;2023-03-22T06:03:33;95586.72;;;4.25;84.97
29247;BME280;16272;48.188;9.964;2023-03-22T06:05:58;95583.72;;;4.75;81.90
29247;BME280;16272;48.188;9.964;2023-03-22T06:08:27;95590.53;;;4.55;83.42
29247;BME280;16272;48.188;9.964;2023-03-22T06:10:52;95593.06;;;4.68;85.03
29247;BME280;16272;48.188;9.964;2023-03-22T06:13:18;95590.88;;;4.95;84.08
29247;BME280;16272;48.188;9.964;2023-03-22T06:15:44;95590.03;;;4.95;82.32
29247;BME280;16272;48.188;9.964;2023-03-22T06:18:12;95592.78;;;4.93;83.05
29247;BME280;16272;48.188;9.964;2023-03-22T06:20:42;95592.03;;;5.79;78.71
29247;BME280;16272;48.188;9.964;2023-03-22T06:23:10;95592.56;;;5.94;78.32
29247;BME280;16272;48.188;9.964;2023-03-22T06:25:36;95586.56;;;5.70;78.76
29247;BME280;16272;48.188;9.964;2023-03-22T06:28:01;95588.53;;;5.57;79.80
29247;BME280;16272;48.188;9.964;2023-03-22T06:30:26;95594.38;;;5.40;80.62
29247;BME280;16272;48.188;9.964;2023-03-22T06:32:55;95591.81;;;5.06;84.70
29247;BME280;16272;48.188;9.964;2023-03-22T06:35:27;95588.25;;;4.95;84.81
29247;BME280;16272;48.188;9.964;2023-03-22T06:37:55;95589.16;;;5.17;86.57
29247;BME280;16272;48.188;9.964;2023-03-22T06:40:20;95593.50;;;5.39;84.70
29247;BME280;16272;48.188;9.964;2023-03-22T06:42:46;95595.19;;;5.73;85.45
29247;BME280;16272;48.188;9.964;2023-03-22T06:45:12;95586.81;;;6.52;83.43
29247;BME280;16272;48.188;9.964;2023-03-22T06:47:43;95584.34;;;6.60;83.13
29247;BME280;16272;48.188;9.964;2023-03-22T06:50:10;95584.31;;;6.81;82.04
29247;BME280;16272;48.188;9.964;2023-03-22T06:52:41;95581.50;;;7.33;80.93
29247;BME280;16272;48.188;9.964;2023-03-22T06:55:15;95572.88;;;7.99;77.40
29247;BME280;16272;48.188;9.964;2023-03-22T06:57:42;95579.25;;;8.16;74.15
29247;BME280;16272;48.188;9.964;2023-03-22T07:00:11;95580.28;;;7.76;77.62
29247;BME280;16272;48.188;9.964;2023-03-22T07:02:41;95577.91;;;7.93;77.45
29247;BME280;16272;48.188;9.964;2023-03-22T07:05:11;95577.97;;;8.40;75.25
29247;BME280;16272;48.188;9.964;2023-03-22T07:07:41;95574.91;;;8.82;73.23
29247;BME280;16272;48.188;9.964;2023-03-22T07:10:10;95577.81;;;8.51;73.36
29247;BME280;16272;48.188;9.964;2023-03-22T07:12:36;95573.16;;;9.00;75.44
29247;BME280;16272;48.188;9.964;2023-03-22T07:15:03;95577.81;;;9.34;71.84
29247;BME280;16272;48.188;9.964;2023-03-22T07:17:30;95584.66;;;9.91;70.57
29247;BME280;16272;48.188;9.964;2023-03-22T07:19:57;95582.88;;;10.18;68.49
29247;BME280;16272;48.188;9.964;2023-03-22T07:22:23;95568.69;;;10.45;69.25
29247;BME280;16272;48.188;9.964;2023-03-22T07:24:49;95573.47;;;11.02;66.41
29247;BME280;16272;48.188;9.964;2023-03-22T07:27:15;95572.63;;;11.10;66.49
29247;BME280;16272;48.188;9.964;2023-03-22T07:29:40;95572.31;;;11.13;65.33
29247;BME280;16272;48.188;9.964;2023-03-22T07:32:06;95563.97;;;11.50;65.83
29247;BME280;16272;48.188;9.964;2023-03-22T07:34:31;95558.66;;;11.67;65.94
29247;BME280;16272;48.188;9.964;2023-03-22T07:36:56;95560.53;;;11.83;66.01
29247;BME280;16272;48.188;9.964;2023-03-22T07:39:23;95556.84;;;11.75;65.12
29247;BME280;16272;48.188;9.964;2023-03-22T07:41:53;95557.06;;;12.15;64.19
29247;BME280;16272;48.188;9.964;2023-03-22T07:44:19;95566.88;;;11.98;63.74
29247;BME280;16272;48.188;9.964;2023-03-22T07:46:45;95561.00;;;12.44;60.08
29247;BME280;16272;48.188;9.964;2023-03-22T07:49:10;95558.34;;;12.52;61.94
29247;BME280;16272;48.188;9.964;2023-03-22T07:51:35;95551.31;;;12.67;61.45
29247;BME280;16272;48.188;9.964;2023-03-22T07:54:01;95563.25;;;12.88;60.61
29247;BME280;16272;48.188;9.964;2023-03-22T07:56:27;95553.97;;;12.76;60.25
29247;BME280;16272;48.188;9.964;2023-03-22T07:58:57;95551.84;;;13.11;58.02
29247;BME280;16272;48.188;9.964;2023-03-22T08:01:26;95557.47;;;13.78;56.25
29247;BME280;16272;48.188;9.964;2023-03-22T08:03:53;95550.16;;;13.72;56.83
29247;BME280;16272;48.188;9.964;2023-03-22T08:06:20;95543.22;;;14.47;55.86
29247;BME280;16272;48.188;9.964;2023-03-22T08:08:46;95547.81;;;13.77;55.51
29247;BME280;16272;48.188;9.964;2023-03-22T08:11:11;95541.41;;;15.22;50.80
29247;BME280;16272;48.188;9.964;2023-03-22T08:13:39;95531.72;;;19.29;41.25
29247;BME280;16272;48.188;9.964;2023-03-22T08:16:06;95528.13;;;18.70;41.41
29247;BME280;16272;48.188;9.964;2023-03-22T08:18:33;95531.44;;;18.79;41.21
29247;BME280;16272;48.188;9.964;2023-03-22T08:20:59;95522.16;;;20.74;39.61
29247;BME280;16272;48.188;9.964;2023-03-22T08:23:26;95529.69;;;20.66;36.80
29247;BME280;16272;48.188;9.964;2023-03-22T08:25:55;95532.53;;;20.46;35.95
29247;BME280;16272;48.188;9.964;2023-03-22T08:28:21;95539.94;;;16.99;44.18
29247;BME280;16272;48.188;9.964;2023-03-22T08:30:48;95537.06;;;16.44;45.75
29247;BME280;16272;48.188;9.964;2023-03-22T08:33:14;95543.53;;;15.63;49.87
29247;BME280;16272;48.188;9.964;2023-03-22T08:35:41;95539.63;;;15.81;46.80
29247;BME280;16272;48.188;9.964;2023-03-22T08:38:11;95535.66;;;15.98;50.67
29247;BME280;16272;48.188;9.964;2023-03-22T08:40:36;95539.63;;;15.81;49.09
29247;BME280;16272;48.188;9.964;2023-03-22T08:43:02;95541.41;;;15.59;47.23
29247;BME280;16272;48.188;9.964;2023-03-22T08:45:30;95539.38;;;15.97;50.64
29247;BME280;16272;48.188;9.964;2023-03-22T08:47:57;95547.91;;;15.50;51.01
29247;BME280;16272;48.188;9.964;2023-03-22T08:50:25;95540.56;;;16.38;48.80
29247;BME280;16272;48.188;9.964;2023-03-22T08:52:50;95547.44;;;15.61;51.18
29247;BME280;16272;48.188;9.964;2023-03-22T08:55:17;95539.22;;;15.48;48.80
29247;BME280;16272;48.188;9.964;2023-03-22T08:57:44;95537.69;;;16.18;49.18
29247;BME280;16272;48.188;9.964;2023-03-22T09:00:15;95533.78;;;15.04;50.00
29247;BME280;16272;48.188;9.964;2023-03-22T09:02:42;95534.28;;;15.30;50.74
29247;BME280;16272;48.188;9.964;2023-03-22T09:05:10;95543.38;;;15.87;50.20
29247;BME280;16272;48.188;9.964;2023-03-22T09:07:37;95529.97;;;16.08;51.25
29247;BME280;16272;48.188;9.964;2023-03-22T09:10:03;95534.72;;;16.34;49.04
29247;BME280;16272;48.188;9.964;2023-03-22T09:12:28;95538.34;;;16.20;48.99
29247;BME280;16272;48.188;9.964;2023-03-22T09:14:57;95530.56;;;17.17;49.04
29247;BME280;16272;48.188;9.964;2023-03-22T09:17:26;95533.88;;;17.19;48.61
29247;BME280;16272;48.188;9.964;2023-03-22T09:19:52;95530.97;;;16.01;49.45
29247;BME280;16272;48.188;9.964;2023-03-22T09:22:17;95536.19;;;16.09;47.76
29247;BME280;16272;48.188;9.964;2023-03-22T09:24:42;95529.88;;;16.73;49.38
29247;BME280;16272;48.188;9.964;2023-03-22T09:27:08;95530.94;;;17.14;49.93
29247;BME280;16272;48.188;9.964;2023-03-22T09:29:33;95547.09;;;15.86;48.73
29247;BME280;16272;48.188;9.964;2023-03-22T09:31:59;95533.72;;;16.64;49.00
29247;BME280;16272;48.188;9.964;2023-03-22T09:34:24;95534.91;;;16.54;49.11
29247;BME280;16272;48.188;9.964;2023-03-22T09:36:51;95537.50;;;15.98;50.72
29247;BME280;16272;48.188;9.964;2023-03-22T09:39:17;95531.50;;;17.02;50.41
29247;BME280;16272;48.188;9.964;2023-03-22T09:41:49;95536.28;;;16.79;48.80
29247;BME280;16272;48.188;9.964;2023-03-22T09:44:29;95534.84;;;16.48;48.39
29247;BME280;16272;48.188;9.964;2023-03-22T09:46:58;95522.00;;;16.71;45.92
29247;BME280;16272;48.188;9.964;2023-03-22T09:49:29;95517.69;;;16.77;47.95
29247;BME280;16272;48.188;9.964;2023-03-22T09:51:58;95520.69;;;17.92;47.98
29247;BME280;16272;48.188;9.964;2023-03-22T09:54:33;95524.09;;;17.04;48.67
29247;BME280;16272;48.188;9.964;2023-03-22T09:57:05;95523.53;;;17.77;49.23
29247;BME280;16272;48.188;9.964;2023-03-22T09:59:53;95520.06;;;17.29;49.38
29247;BME280;16272;48.188;9.964;2023-03-22T10:10:41;95499.50;;;17.62;48.78
29247;BME280;16272;48.188;9.964;2023-03-22T10:15:46;95491.34;;;18.17;47.70
29247;BME280;16272;48.188;9.964;2023-03-22T10:18:22;95484.88;;;17.72;48.58
29247;BME280;16272;48.188;9.964;2023-03-22T10:21:02;95482.28;;;17.30;46.33
29247;BME280;16272;48.188;9.964;2023-03-22T10:23:35;95473.34;;;18.51;47.29
29247;BME280;16272;48.188;9.964;2023-03-22T10:26:03;95481.00;;;18.21;45.91
29247;BME280;16272;48.188;9.964;2023-03-22T10:28:37;95470.66;;;18.58;46.39
29247;BME280;16272;48.188;9.964;2023-03-22T10:31:03;95461.34;;;20.22;46.51
29247;BME280;16272;48.188;9.964;2023-03-22T10:33:39;95466.84;;;19.44;45.51
29247;BME280;16272;48.188;9.964;2023-03-22T10:36:14;95461.53;;;18.52;46.47
29247;BME280;16272;48.188;9.964;2023-03-22T10:38:53;95456.19;;;18.26;48.96
29247;BME280;16272;48.188;9.964;2023-03-22T10:41:23;95456.16;;;18.52;46.18
29247;BME280;16272;48.188;9.964;2023-03-22T10:44:01;95459.28;;;18.36;47.03
29247;BME280;16272;48.188;9.964;2023-03-22T10:46:34;95458.63;;;17.80;45.61
29247;BME280;16272;48.188;9.964;2023-03-22T10:49:02;95448.94;;;18.40;47.25
29247;BME280;16272;48.188;9.964;2023-03-22T10:51:46;95452.47;;;18.40;46.53
29247;BME280;16272;48.188;9.964;2023-03-22T10:54:15;95444.22;;;18.08;45.37
29247;BME280;16272;48.188;9.964;2023-03-22T10:56:43;95451.31;;;18.95;47.97
29247;BME280;16272;48.188;9.964;2023-03-22T10:59:48;95437.28;;;18.79;46.79
29247;BME280;16272;48.188;9.964;2023-03-22T11:03:00;95434.78;;;19.36;44.11
29247;BME280;16272;48.188;9.964;2023-03-22T11:05:28;95445.47;;;18.06;43.61
29247;BME280;16272;48.188;9.964;2023-03-22T11:07:56;95439.97;;;18.66;43.58
29247;BME280;16272;48.188;9.964;2023-03-22T11:10:28;95428.66;;;19.54;44.19
29247;BME280;16272;48.188;9.964;2023-03-22T11:15:34;95421.41;;;18.44;45.49
29247;BME280;16272;48.188;9.964;2023-03-22T11:18:04;95417.22;;;19.59;43.74
29247;BME280;16272;48.188;9.964;2023-03-22T11:20:33;95405.09;;;19.43;42.96
29247;BME280;16272;48.188;9.964;2023-03-22T11:23:00;95407.63;;;19.70;40.69
29247;BME280;16272;48.188;9.964;2023-03-22T11:25:33;95398.78;;;19.31;44.94
29247;BME280;16272;48.188;9.964;2023-03-22T11:28:18;95388.91;;;19.18;40.76
29247;BME280;16272;48.188;9.964;2023-03-22T11:31:08;95401.44;;;19.37;42.64
29247;BME280;16272;48.188;9.964;2023-03-22T11:33:35;95396.34;;;19.86;42.70
29247;BME280;16272;48.188;9.964;2023-03-22T11:36:16;95393.03;;;20.09;40.36
29247;BME280;16272;48.188;9.964;2023-03-22T11:38:44;95388.66;;;19.90;40.98
29247;BME280;16272;48.188;9.964;2023-03-22T11:41:22;95393.78;;;19.66;39.45
29247;BME280;16272;48.188;9.964;2023-03-22T11:43:52;95389.13;;;20.49;40.86
29247;BME280;16272;48.188;9.964;2023-03-22T11:46:18;95392.41;;;19.57;39.32
29247;BME280;16272;48.188;9.964;2023-03-22T11:48:46;95394.47;;;18.71;38.68
29247;BME280;16272;48.188;9.964;2023-03-22T11:51:24;95394.19;;;19.95;40.57
29247;BME280;16272;48.188;9.964;2023-03-22T11:53:55;95393.56;;;18.90;39.53
29247;BME280;16272;48.188;9.964;2023-03-22T11:56:29;95379.88;;;18.99;38.83
29247;BME280;16272;48.188;9.964;2023-03-22T11:59:04;95383.19;;;19.71;40.13
29247;BME280;16272;48.188;9.964;2023-03-22T12:01:39;95384.72;;;19.86;40.17
29247;BME280;16272;48.188;9.964;2023-03-22T12:04:10;95377.25;;;19.56;38.37
29247;BME280;16272;48.188;9.964;2023-03-22T12:06:39;95379.00;;;18.60;39.95
29247;BME280;16272;48.188;9.964;2023-03-22T12:11:45;95377.28;;;19.88;40.78
29247;BME280;16272;48.188;9.964;2023-03-22T12:14:18;95382.47;;;19.51;37.45
29247;BME280;16272;48.188;9.964;2023-03-22T12:16:49;95370.66;;;19.83;37.85
29247;BME280;16272;48.188;9.964;2023-03-22T12:21:53;95366.66;;;18.90;36.35
29247;BME280;16272;48.188;9.964;2023-03-22T12:24:27;95363.31;;;18.50;36.51
29247;BME280;16272;48.188;9.964;2023-03-22T12:27:07;95351.22;;;20.25;36.88
29247;BME280;16272;48.188;9.964;2023-03-22T12:29:53;95351.22;;;19.75;37.21
29247;BME280;16272;48.188;9.964;2023-03-22T12:32:25;95352.63;;;19.52;35.13
29247;BME280;16272;48.188;9.964;2023-03-22T12:34:52;95353.69;;;19.19;37.33
29247;BME280;16272;48.188;9.964;2023-03-22T12:37:31;95342.50;;;18.77;36.36
29247;BME280;16272;48.188;9.964;2023-03-22T12:42:56;95328.09;;;20.73;36.89
29247;BME280;16272;48.188;9.964;2023-03-22T12:45:27;95333.59;;;20.41;35.55
29247;BME280;16272;48.188;9.964;2023-03-22T12:48:04;95330.25;;;20.02;35.70
29247;BME280;16272;48.188;9.964;2023-03-22T12:50:41;95327.09;;;19.29;35.37
29247;BME280;16272;48.188;9.964;2023-03-22T12:53:12;95333.28;;;19.05;37.05
29247;BME280;16272;48.188;9.964;2023-03-22T12:55:40;95332.00;;;18.62;36.41
29247;BME280;16272;48.188;9.964;2023-03-22T12:58:12;95325.97;;;19.76;35.76
29247;BME280;16272;48.188;9.964;2023-03-22T13:00:51;95323.72;;;20.72;34.39
29247;BME280;16272;48.188;9.964;2023-03-22T13:03:35;95317.56;;;20.46;36.84
29247;BME280;16272;48.188;9.964;2023-03-22T13:06:06;95309.59;;;18.75;37.84
29247;BME280;16272;48.188;9.964;2023-03-22T13:09:15;95308.03;;;19.88;36.71
29247;BME280;16272;48.188;9.964;2023-03-22T13:11:43;95307.72;;;19.78;36.54
29247;BME280;16272;48.188;9.964;2023-03-22T13:19:54;95295.47;;;20.37;34.86
29247;BME280;16272;48.188;9.964;2023-03-22T13:22:30;95292.34;;;20.22;37.03
29247;BME280;16272;48.188;9.964;2023-03-22T13:27:54;95295.19;;;20.09;33.07
29247;BME280;16272;48.188;9.964;2023-03-22T13:30:56;95290.09;;;20.19;34.84
29247;BME280;16272;48.188;9.964;2023-03-22T13:33:30;95277.63;;;20.36;36.32
29247;BME280;16272;48.188;9.964;2023-03-22T13:36:24;95294.94;;;19.92;36.83
29247;BME280;16272;48.188;9.964;2023-03-22T13:39:00;95298.41;;;20.73;35.50
29247;BME280;16272;48.188;9.964;2023-03-22T13:41:33;95295.13;;;20.15;34.98
29247;BME280;16272;48.188;9.964;2023-03-22T13:44:19;95295.06;;;19.53;35.23
29247;BME280;16272;48.188;9.964;2023-03-22T13:46:50;95294.19;;;19.53;34.28
29247;BME280;16272;48.188;9.964;2023-03-22T13:52:00;95279.91;;;19.77;34.63
29247;BME280;16272;48.188;9.964;2023-03-22T13:54:43;95284.78;;;19.43;36.07
29247;BME280;16272;48.188;9.964;2023-03-22T13:57:16;95278.09;;;18.82;34.98
29247;BME280;16272;48.188;9.964;2023-03-22T14:03:00;95285.41;;;18.23;38.59
29247;BME280;16272;48.188;9.964;2023-03-22T14:05:30;95277.13;;;18.25;38.93
29247;BME280;16272;48.188;9.964;2023-03-22T14:07:59;95277.00;;;18.06;37.55
29247;BME280;16272;48.188;9.964;2023-03-22T14:10:51;95277.50;;;17.56;36.61
29247;BME280;16272;48.188;9.964;2023-03-22T14:13:37;95269.81;;;17.67;38.16
29247;BME280;16272;48.188;9.964;2023-03-22T14:16:08;95269.25;;;18.36;37.47
29247;BME280;16272;48.188;9.964;2023-03-22T14:18:40;95269.84;;;18.84;38.33
29247;BME280;16272;48.188;9.964;2023-03-22T14:21:13;95268.28;;;19.01;36.47